sensor_id;sensor_type;location;lat;lon;timestamp;pressure;altitude;pressure_sealevel;temperature;humidity
12178;BME280;6152;48.728;9.256;2023-02-01T00:02:04;97752.25;;;2.53;100.00
12178;BME280;6152;48.728;9.256;2023-02-01T00:04:31;97737.81;;;2.48;100.00
12178;BME280;6152;48.728;9.256;2023-02-01T00:06:57;97742.91;;;2.49;100.00
12178;BME280;6152;48.728;9.256;2023-02-01T00:09:24;97748.97;;;2.45;100.00
12178;BME280;6152;48.728;9.256;2023-02-01T00:11:50;97747.28;;;2.44;100.00
12178;BME280;6152;48.728;9.256;2023-02-01T00:14:16;97742.19;;;2.41;100.00
12178;BME280;6152;48.728;9.256;2023-02-01T00:16:43;97742.22;;;2.40;100.00
12178;BME280;6152;48.728;9.256;2023-02-01T00:19:13;97733.69;;;2.39;100.00
12178;BME280;6152;48.728;9.256;2023-02-01T00:21:40;97731.97;;;2.38;100.00
12178;BME280;6152;48.728;9.256;2023-02-01T00:24:07;97731.97;;;2.38;100.00
12178;BME280;6152;48.728;9.256;2023-02-01T00:26:34;97726.78;;;2.41;100.00
12178;BME280;6152;48.728;9.256;2023-02-01T00:29:02;97727.72;;;2.37;100.00
12178;BME280;6152;48.728;9.256;2023-02-01T00:31:28;97723.31;;;2.44;100.00
12178;BME280;6152;48.728;9.256;2023-02-01T00:33:55;97732.81;;;2.40;100.00
12178;BME280;6152;48.728;9.256;2023-02-01T00:36:21;97722.56;;;2.39;100.00
12178;BME280;6152;48.728;9.256;2023-02-01T00:38:47;97718.28;;;2.39;100.00
12178;BME280;6152;48.728;9.256;2023-02-01T00:41:16;97716.50;;;2.41;100.00
12178;BME280;6152;48.728;9.256;2023-02-01T00:43:43;97724.19;;;2.44;100.00
12178;BME280;6152;48.728;9.256;2023-02-01T00:46:11;97719.06;;;2.43;100.00
12178;BME280;6152;48.728;9.256;2023-02-01T00:48:38;97728.41;;;2.45;100.00
12178;BME280;6152;48.728;9.256;2023-02-01T00:51:07;97729.28;;;2.46;100.00
12178;BME280;6152;48.728;9.256;2023-02-01T00:53:34;97714.72;;;2.45;100.00
12178;BME280;6152;48.728;9.256;2023-02-01T00:56:00;97705.22;;;2.50;100.00
12178;BME280;6152;48.728;9.256;2023-02-01T00:58:27;97709.50;;;2.49;100.00
12178;BME280;6152;48.728;9.256;2023-02-01T01:01:21;97707.81;;;2.48;100.00
12178;BME280;6152;48.728;9.256;2023-02-01T01:03:50;97712.06;;;2.51;100.00
12178;BME280;6152;48.728;9.256;2023-02-01T01:06:29;97712.06;;;2.49;100.00
12178;BME280;6152;48.728;9.256;2023-02-01T01:08:57;97712.94;;;2.48;100.00
12178;BME280;6152;48.728;9.256;2023-02-01T01:11:30;97715.50;;;2.50;100.00
12178;BME280;6152;48.728;9.256;2023-02-01T01:13:58;97719.66;;;2.55;100.00
12178;BME280;6152;48.728;9.256;2023-02-01T01:16:26;97711.16;;;2.52;100.00
12178;BME280;6152;48.728;9.256;2023-02-01T01:18:53;97711.22;;;2.50;100.00
12178;BME280;6152;48.728;9.256;2023-02-01T01:21:20;97697.53;;;2.50;100.00
12178;BME280;6152;48.728;9.256;2023-02-01T01:23:47;97703.50;;;2.50;100.00
12178;BME280;6152;48.728;9.256;2023-02-01T01:26:19;97699.22;;;2.49;100.00
12178;BME280;6152;48.728;9.256;2023-02-01T01:28:46;97702.66;;;2.48;100.00
12178;BME280;6152;48.728;9.256;2023-02-01T01:31:14;97687.38;;;2.42;100.00
12178;BME280;6152;48.728;9.256;2023-02-01T01:33:41;97711.16;;;2.52;100.00
12178;BME280;6152;48.728;9.256;2023-02-01T01:36:08;97718.06;;;2.51;100.00
12178;BME280;6152;48.728;9.256;2023-02-01T01:38:38;97714.56;;;2.54;100.00
12178;BME280;6152;48.728;9.256;2023-02-01T01:41:04;97717.94;;;2.58;100.00
12178;BME280;6152;48.728;9.256;2023-02-01T01:43:51;97706.00;;;2.53;100.00
12178;BME280;6152;48.728;9.256;2023-02-01T01:46:29;97713.69;;;2.55;100.00
12178;BME280;6152;48.728;9.256;2023-02-01T01:49:15;97708.59;;;2.53;100.00
12178;BME280;6152;48.728;9.256;2023-02-01T01:51:54;97712.00;;;2.54;100.00
12178;BME280;6152;48.728;9.256;2023-02-01T01:54:44;97701.72;;;2.54;100.00
12178;BME280;6152;48.728;9.256;2023-02-01T01:57:38;97706.81;;;2.55;100.00
12178;BME280;6152;48.728;9.256;2023-02-01T02:00:10;97699.00;;;2.62;100.00
12178;BME280;6152;48.728;9.256;2023-02-01T02:02:38;97694.81;;;2.58;100.00
12178;BME280;6152;48.728;9.256;2023-02-01T02:05:05;97695.66;;;2.57;100.00
12178;BME280;6152;48.728;9.256;2023-02-01T02:07:39;97700.88;;;2.53;100.00
12178;BME280;6152;48.728;9.256;2023-02-01T02:10:08;97698.28;;;2.55;100.00
12178;BME280;6152;48.728;9.256;2023-02-01T02:12:39;97681.97;;;2.56;100.00
12178;BME280;6152;48.728;9.256;2023-02-01T02:15:07;97687.13;;;2.56;100.00
12178;BME280;6152;48.728;9.256;2023-02-01T02:17:53;97680.25;;;2.57;100.00
12178;BME280;6152;48.728;9.256;2023-02-01T02:26:00;97683.53;;;2.65;100.00
12178;BME280;6152;48.728;9.256;2023-02-01T02:34:20;97678.28;;;2.69;100.00
12178;BME280;6152;48.728;9.256;2023-02-01T02:45:44;97668.69;;;2.77;100.00
12178;BME280;6152;48.728;9.256;2023-02-01T02:48:43;97677.31;;;2.75;100.00
12178;BME280;6152;48.728;9.256;2023-02-01T02:51:23;97668.78;;;2.73;100.00
12178;BME280;6152;48.728;9.256;2023-02-01T02:54:13;97673.06;;;2.74;100.00
12178;BME280;6152;48.728;9.256;2023-02-01T02:57:03;97659.34;;;2.75;100.00
12178;BME280;6152;48.728;9.256;2023-02-01T02:59:49;97663.56;;;2.77;100.00
12178;BME280;6152;48.728;9.256;2023-02-01T03:02:35;97658.41;;;2.77;100.00
12178;BME280;6152;48.728;9.256;2023-02-01T03:05:20;97665.22;;;2.80;100.00
12178;BME280;6152;48.728;9.256;2023-02-01T03:08:04;97660.28;;;2.71;100.00
12178;BME280;6152;48.728;9.256;2023-02-01T03:19:23;97658.06;;;2.52;100.00
12178;BME280;6152;48.728;9.256;2023-02-01T03:22:07;97648.72;;;2.48;100.00
12178;BME280;6152;48.728;9.256;2023-02-01T03:24:38;97644.50;;;2.47;100.00
12178;BME280;6152;48.728;9.256;2023-02-01T03:30:02;97655.56;;;2.49;100.00
12178;BME280;6152;48.728;9.256;2023-02-01T03:32:32;97652.19;;;2.47;100.00
12178;BME280;6152;48.728;9.256;2023-02-01T03:36:05;97648.72;;;2.48;100.00
12178;BME280;6152;48.728;9.256;2023-02-01T03:40:49;97614.47;;;2.49;100.00
12178;BME280;6152;48.728;9.256;2023-02-01T03:43:18;97617.03;;;2.49;100.00
12178;BME280;6152;48.728;9.256;2023-02-01T03:45:53;97619.59;;;2.49;100.00
12178;BME280;6152;48.728;9.256;2023-02-01T03:48:23;97617.03;;;2.49;100.00
12178;BME280;6152;48.728;9.256;2023-02-01T03:50:52;97620.47;;;2.48;100.00
12178;BME280;6152;48.728;9.256;2023-02-01T03:53:22;97613.59;;;2.50;100.00
12178;BME280;6152;48.728;9.256;2023-02-01T03:55:51;97607.59;;;2.51;100.00
12178;BME280;6152;48.728;9.256;2023-02-01T03:58:20;97615.34;;;2.48;100.00
12178;BME280;6152;48.728;9.256;2023-02-01T04:00:53;97611.91;;;2.49;100.00
12178;BME280;6152;48.728;9.256;2023-02-01T04:03:19;97609.38;;;2.48;100.00
12178;BME280;6152;48.728;9.256;2023-02-01T04:05:45;97623.03;;;2.50;100.00
12178;BME280;6152;48.728;9.256;2023-02-01T04:08:11;97616.13;;;2.52;100.00
12178;BME280;6152;48.728;9.256;2023-02-01T04:10:37;97618.59;;;2.57;100.00
12178;BME280;6152;48.728;9.256;2023-02-01T04:13:03;97613.47;;;2.57;100.00
12178;BME280;6152;48.728;9.256;2023-02-01T04:15:30;97616.88;;;2.59;100.00
12178;BME280;6152;48.728;9.256;2023-02-01T04:17:56;97619.38;;;2.62;100.00
12178;BME280;6152;48.728;9.256;2023-02-01T04:20:22;97609.97;;;2.61;100.00
12178;BME280;6152;48.728;9.256;2023-02-01T04:22:48;97608.19;;;2.63;100.00
12178;BME280;6152;48.728;9.256;2023-02-01T04:25:14;97619.25;;;2.66;100.00
12178;BME280;6152;48.728;9.256;2023-02-01T04:27:43;97629.53;;;2.66;100.00
12178;BME280;6152;48.728;9.256;2023-02-01T04:30:09;97629.56;;;2.65;100.00
12178;BME280;6152;48.728;9.256;2023-02-01T04:32:37;97632.00;;;2.71;100.00
12178;BME280;6152;48.728;9.256;2023-02-01T04:35:03;97629.41;;;2.72;100.00
12178;BME280;6152;48.728;9.256;2023-02-01T04:37:30;97642.28;;;2.72;100.00
12178;BME280;6152;48.728;9.256;2023-02-01T04:39:56;97642.28;;;2.72;100.00
12178;BME280;6152;48.728;9.256;2023-02-01T04:42:22;97625.94;;;2.75;100.00
12178;BME280;6152;48.728;9.256;2023-02-01T04:44:48;97626.66;;;2.80;100.00
12178;BME280;6152;48.728;9.256;2023-02-01T04:47:14;97614.72;;;2.79;100.00
12178;BME280;6152;48.728;9.256;2023-02-01T04:49:41;97608.78;;;2.75;100.00
12178;BME280;6152;48.728;9.256;2023-02-01T04:52:08;97613.94;;;2.74;100.00
12178;BME280;6152;48.728;9.256;2023-02-01T04:54:34;97634.50;;;2.74;100.00
12178;BME280;6152;48.728;9.256;2023-02-01T04:57:00;97630.94;;;2.79;100.00
12178;BME280;6152;48.728;9.256;2023-02-01T04:59:27;97625.88;;;2.78;100.00
12178;BME280;6152;48.728;9.256;2023-02-01T05:01:54;97613.00;;;2.78;100.00
12178;BME280;6152;48.728;9.256;2023-02-01T05:04:20;97615.59;;;2.78;100.00
12178;BME280;6152;48.728;9.256;2023-02-01T05:06:46;97611.25;;;2.80;100.00
12178;BME280;6152;48.728;9.256;2023-02-01T05:09:12;97606.03;;;2.83;100.00
12178;BME280;6152;48.728;9.256;2023-02-01T05:11:39;97615.41;;;2.85;100.00
12178;BME280;6152;48.728;9.256;2023-02-01T05:14:23;97607.66;;;2.87;100.00
12178;BME280;6152;48.728;9.256;2023-02-01T05:16:50;97616.28;;;2.86;100.00
12178;BME280;6152;48.728;9.256;2023-02-01T05:19:16;97620.59;;;2.84;100.00
12178;BME280;6152;48.728;9.256;2023-02-01T05:21:42;97623.16;;;2.84;100.00
12178;BME280;6152;48.728;9.256;2023-02-01T05:24:09;97624.78;;;2.88;100.00
12178;BME280;6152;48.728;9.256;2023-02-01T05:26:35;97634.19;;;2.89;100.00
12178;BME280;6152;48.728;9.256;2023-02-01T05:29:02;97631.56;;;2.92;100.00
12178;BME280;6152;48.728;9.256;2023-02-01T05:31:28;97636.75;;;2.89;100.00
12178;BME280;6152;48.728;9.256;2023-02-01T05:33:54;97626.34;;;2.93;100.00
12178;BME280;6152;48.728;9.256;2023-02-01T05:36:21;97627.25;;;2.92;100.00
12178;BME280;6152;48.728;9.256;2023-02-01T05:38:47;97628.16;;;2.90;100.00
12178;BME280;6152;48.728;9.256;2023-02-01T05:41:13;97626.34;;;2.95;100.00
12178;BME280;6152;48.728;9.256;2023-02-01T05:43:39;97622.13;;;2.92;100.00
12178;BME280;6152;48.728;9.256;2023-02-01T05:46:05;97619.56;;;2.91;100.00
12178;BME280;6152;48.728;9.256;2023-02-01T05:48:32;97634.13;;;2.90;100.00
12178;BME280;6152;48.728;9.256;2023-02-01T05:50:58;97627.34;;;2.89;100.00
12178;BME280;6152;48.728;9.256;2023-02-01T05:53:24;97627.34;;;2.89;100.00
12178;BME280;6152;48.728;9.256;2023-02-01T05:55:50;97636.69;;;2.92;100.00
12178;BME280;6152;48.728;9.256;2023-02-01T05:58:16;97635.91;;;2.88;100.00
12178;BME280;6152;48.728;9.256;2023-02-01T06:00:42;97633.34;;;2.88;100.00
12178;BME280;6152;48.728;9.256;2023-02-01T06:03:08;97640.28;;;2.83;100.00
12178;BME280;6152;48.728;9.256;2023-02-01T06:05:34;97641.22;;;2.79;100.00
12178;BME280;6152;48.728;9.256;2023-02-01T06:08:01;97630.06;;;2.82;100.00
12178;BME280;6152;48.728;9.256;2023-02-01T06:10:27;97627.56;;;2.79;100.00
12178;BME280;6152;48.728;9.256;2023-02-01T06:12:53;97623.38;;;2.73;100.00
12178;BME280;6152;48.728;9.256;2023-02-01T06:15:19;97605.47;;;2.70;100.00
12178;BME280;6152;48.728;9.256;2023-02-01T06:17:46;97603.00;;;2.66;100.00
12178;BME280;6152;48.728;9.256;2023-02-01T06:20:13;97603.13;;;2.60;100.00
12178;BME280;6152;48.728;9.256;2023-02-01T06:22:39;97594.63;;;2.58;100.00
12178;BME280;6152;48.728;9.256;2023-02-01T06:25:07;97586.03;;;2.59;100.00
12178;BME280;6152;48.728;9.256;2023-02-01T06:27:34;97598.91;;;2.57;100.00
12178;BME280;6152;48.728;9.256;2023-02-01T06:30:00;97603.19;;;2.57;100.00
12178;BME280;6152;48.728;9.256;2023-02-01T06:32:26;97605.75;;;2.57;100.00
12178;BME280;6152;48.728;9.256;2023-02-01T06:34:52;97608.34;;;2.57;100.00
12178;BME280;6152;48.728;9.256;2023-02-01T06:37:19;97597.19;;;2.58;100.00
12178;BME280;6152;48.728;9.256;2023-02-01T06:39:45;97604.03;;;2.57;100.00
12178;BME280;6152;48.728;9.256;2023-02-01T06:42:11;97596.31;;;2.59;100.00
12178;BME280;6152;48.728;9.256;2023-02-01T06:44:38;97610.81;;;2.61;100.00
12178;BME280;6152;48.728;9.256;2023-02-01T06:47:04;97612.53;;;2.61;100.00
12178;BME280;6152;48.728;9.256;2023-02-01T06:49:31;97621.94;;;2.62;100.00
12178;BME280;6152;48.728;9.256;2023-02-01T06:51:57;97621.94;;;2.62;100.00
12178;BME280;6152;48.728;9.256;2023-02-01T06:54:26;97616.72;;;2.65;100.00
12178;BME280;6152;48.728;9.256;2023-02-01T06:56:52;97613.22;;;2.69;100.00
12178;BME280;6152;48.728;9.256;2023-02-01T06:59:18;97626.81;;;2.74;100.00
12178;BME280;6152;48.728;9.256;2023-02-01T07:01:44;97629.44;;;2.71;100.00
12178;BME280;6152;48.728;9.256;2023-02-01T07:04:12;97632.84;;;2.71;100.00
12178;BME280;6152;48.728;9.256;2023-02-01T07:06:38;97635.28;;;2.77;100.00
12178;BME280;6152;48.728;9.256;2023-02-01T07:09:05;97635.19;;;2.82;100.00
12178;BME280;6152;48.728;9.256;2023-02-01T07:11:32;97639.41;;;2.86;100.00
12178;BME280;6152;48.728;9.256;2023-02-01T07:13:58;97643.56;;;2.90;100.00
12178;BME280;6152;48.728;9.256;2023-02-01T07:16:25;97642.78;;;2.88;100.00
12178;BME280;6152;48.728;9.256;2023-02-01T07:18:52;97641.91;;;2.87;100.00
12178;BME280;6152;48.728;9.256;2023-02-01T07:21:19;97648.75;;;2.88;100.00
12178;BME280;6152;48.728;9.256;2023-02-01T07:23:45;97653.06;;;2.88;100.00
12178;BME280;6152;48.728;9.256;2023-02-01T07:26:13;97660.69;;;2.91;100.00
12178;BME280;6152;48.728;9.256;2023-02-01T07:28:40;97664.91;;;2.93;100.00
12178;BME280;6152;48.728;9.256;2023-02-01T07:31:08;97664.88;;;2.96;100.00
12178;BME280;6152;48.728;9.256;2023-02-01T07:33:35;97662.25;;;2.98;100.00
12178;BME280;6152;48.728;9.256;2023-02-01T07:36:03;97669.03;;;3.02;100.00
12178;BME280;6152;48.728;9.256;2023-02-01T07:38:30;97678.38;;;3.06;100.00
12178;BME280;6152;48.728;9.256;2023-02-01T07:41:00;97673.94;;;3.11;100.00
12178;BME280;6152;48.728;9.256;2023-02-01T07:43:27;97680.78;;;3.12;100.00
12178;BME280;6152;48.728;9.256;2023-02-01T07:45:54;97690.13;;;3.16;100.00
12178;BME280;6152;48.728;9.256;2023-02-01T07:48:22;97673.78;;;3.19;100.00
12178;BME280;6152;48.728;9.256;2023-02-01T07:50:48;97672.00;;;3.22;100.00
12178;BME280;6152;48.728;9.256;2023-02-01T07:53:22;97677.00;;;3.28;100.00
12178;BME280;6152;48.728;9.256;2023-02-01T07:55:48;97675.19;;;3.33;100.00
12178;BME280;6152;48.728;9.256;2023-02-01T07:58:14;97685.25;;;3.42;100.00
12178;BME280;6152;48.728;9.256;2023-02-01T08:00:40;97669.72;;;3.45;100.00
12178;BME280;6152;48.728;9.256;2023-02-01T08:03:24;97666.22;;;3.49;100.00
12178;BME280;6152;48.728;9.256;2023-02-01T08:05:54;97671.28;;;3.52;100.00
12178;BME280;6152;48.728;9.256;2023-02-01T08:08:21;97679.75;;;3.58;100.00
12178;BME280;6152;48.728;9.256;2023-02-01T08:10:47;97675.56;;;3.53;100.00
12178;BME280;6152;48.728;9.256;2023-02-01T08:13:14;97680.63;;;3.56;100.00
12178;BME280;6152;48.728;9.256;2023-02-01T08:15:40;97684.91;;;3.58;100.00
12178;BME280;6152;48.728;9.256;2023-02-01T08:18:06;97666.75;;;3.62;100.00
12178;BME280;6152;48.728;9.256;2023-02-01T08:20:33;97671.00;;;3.65;100.00
12178;BME280;6152;48.728;9.256;2023-02-01T08:23:01;97659.03;;;3.62;100.00
12178;BME280;6152;48.728;9.256;2023-02-01T08:25:27;97664.91;;;3.69;100.00
12178;BME280;6152;48.728;9.256;2023-02-01T08:27:53;97670.91;;;3.68;100.00
12178;BME280;6152;48.728;9.256;2023-02-01T08:30:20;97683.72;;;3.71;100.00
12178;BME280;6152;48.728;9.256;2023-02-01T08:32:47;97686.28;;;3.71;100.00
12178;BME280;6152;48.728;9.256;2023-02-01T08:35:14;97687.09;;;3.73;100.00
12178;BME280;6152;48.728;9.256;2023-02-01T08:37:40;97684.56;;;3.71;100.00
12178;BME280;6152;48.728;9.256;2023-02-01T08:40:06;97688.84;;;3.72;100.00
12178;BME280;6152;48.728;9.256;2023-02-01T08:42:33;97686.09;;;3.78;100.00
12178;BME280;6152;48.728;9.256;2023-02-01T08:45:23;97685.97;;;3.83;100.00
12178;BME280;6152;48.728;9.256;2023-02-01T08:47:52;97677.28;;;3.87;100.00
12178;BME280;6152;48.728;9.256;2023-02-01T08:50:19;97680.53;;;3.95;100.00
12178;BME280;6152;48.728;9.256;2023-02-01T08:52:46;97679.50;;;4.02;100.00
12178;BME280;6152;48.728;9.256;2023-02-01T08:55:13;97694.66;;;4.13;100.00
12178;BME280;6152;48.728;9.256;2023-02-01T08:57:40;97701.94;;;4.29;100.00
12178;BME280;6152;48.728;9.256;2023-02-01T09:00:11;97711.22;;;4.36;100.00
12178;BME280;6152;48.728;9.256;2023-02-01T09:02:37;97712.09;;;4.35;100.00
12178;BME280;6152;48.728;9.256;2023-02-01T09:05:04;97701.94;;;4.29;100.00
12178;BME280;6152;48.728;9.256;2023-02-01T09:07:31;97698.59;;;4.27;100.00
12178;BME280;6152;48.728;9.256;2023-02-01T09:09:57;97695.34;;;4.19;100.00
12178;BME280;6152;48.728;9.256;2023-02-01T09:12:27;97698.72;;;4.21;100.00
12178;BME280;6152;48.728;9.256;2023-02-01T09:14:55;97700.66;;;4.13;100.00
12178;BME280;6152;48.728;9.256;2023-02-01T09:17:21;97711.75;;;4.17;100.00
12178;BME280;6152;48.728;9.256;2023-02-01T09:19:47;97700.75;;;4.10;100.00
12178;BME280;6152;48.728;9.256;2023-02-01T09:22:15;97707.72;;;4.05;100.00
12178;BME280;6152;48.728;9.256;2023-02-01T09:24:41;97714.78;;;3.97;100.00
12178;BME280;6152;48.728;9.256;2023-02-01T09:27:07;97710.63;;;3.93;100.00
12178;BME280;6152;48.728;9.256;2023-02-01T09:29:33;97711.53;;;3.90;100.00
12178;BME280;6152;48.728;9.256;2023-02-01T09:32:00;97714.09;;;3.90;100.00
12178;BME280;6152;48.728;9.256;2023-02-01T09:34:26;97721.88;;;3.89;100.00
12178;BME280;6152;48.728;9.256;2023-02-01T09:36:52;97726.09;;;3.91;100.00
12178;BME280;6152;48.728;9.256;2023-02-01T09:39:18;97721.03;;;3.88;100.00
12178;BME280;6152;48.728;9.256;2023-02-01T09:46:58;97714.66;;;4.03;100.00
12178;BME280;6152;48.728;9.256;2023-02-01T09:49:31;97721.19;;;4.16;100.00
12178;BME280;6152;48.728;9.256;2023-02-01T09:52:00;97721.53;;;4.35;100.00
12178;BME280;6152;48.728;9.256;2023-02-01T09:54:39;97725.28;;;4.55;100.00
12178;BME280;6152;48.728;9.256;2023-02-01T09:57:09;97736.97;;;4.69;100.00
12178;BME280;6152;48.728;9.256;2023-02-01T09:59:47;97736.88;;;4.72;100.00
12178;BME280;6152;48.728;9.256;2023-02-01T10:02:25;97741.00;;;4.79;100.00
12178;BME280;6152;48.728;9.256;2023-02-01T10:04:55;97736.53;;;4.84;100.00
12178;BME280;6152;48.728;9.256;2023-02-01T10:13:27;97742.63;;;4.81;100.00
12178;BME280;6152;48.728;9.256;2023-02-01T10:21:51;97748.72;;;4.79;100.00
12178;BME280;6152;48.728;9.256;2023-02-01T10:27:36;97772.97;;;4.72;100.00
12178;BME280;6152;48.728;9.256;2023-02-01T10:30:23;97778.22;;;4.69;100.00
12178;BME280;6152;48.728;9.256;2023-02-01T10:32:55;97773.13;;;4.66;100.00
12178;BME280;6152;48.728;9.256;2023-02-01T10:35:28;97770.63;;;4.63;100.00
12178;BME280;6152;48.728;9.256;2023-02-01T10:37:59;97763.72;;;4.65;100.00
12178;BME280;6152;48.728;9.256;2023-02-01T10:40:26;97772.16;;;4.70;100.00
12178;BME280;6152;48.728;9.256;2023-02-01T10:42:57;97756.53;;;4.76;100.00
12178;BME280;6152;48.728;9.256;2023-02-01T10:45:28;97760.72;;;4.80;100.00
12178;BME280;6152;48.728;9.256;2023-02-01T10:47:57;97762.41;;;4.81;100.00
12178;BME280;6152;48.728;9.256;2023-02-01T10:50:53;97761.25;;;4.91;100.00
12178;BME280;6152;48.728;9.256;2023-02-01T10:55:54;97757.72;;;4.95;100.00
12178;BME280;6152;48.728;9.256;2023-02-01T10:58:26;97762.84;;;4.96;100.00
12178;BME280;6152;48.728;9.256;2023-02-01T11:01:04;97753.44;;;4.94;100.00
12178;BME280;6152;48.728;9.256;2023-02-01T11:06:33;97745.28;;;5.09;100.00
12178;BME280;6152;48.728;9.256;2023-02-01T11:11:57;97734.88;;;5.12;100.00
12178;BME280;6152;48.728;9.256;2023-02-01T11:16:59;97736.00;;;5.31;100.00
12178;BME280;6152;48.728;9.256;2023-02-01T11:19:27;97734.91;;;5.40;100.00
12178;BME280;6152;48.728;9.256;2023-02-01T11:21:57;97738.03;;;5.49;100.00
12178;BME280;6152;48.728;9.256;2023-02-01T11:24:31;97737.06;;;5.53;100.00
12178;BME280;6152;48.728;9.256;2023-02-01T11:27:12;97735.97;;;5.60;100.00
12178;BME280;6152;48.728;9.256;2023-02-01T11:29:42;97733.19;;;5.67;100.00
12178;BME280;6152;48.728;9.256;2023-02-01T11:32:11;97724.59;;;5.66;100.00
12178;BME280;6152;48.728;9.256;2023-02-01T11:37:52;97725.19;;;5.76;100.00
12178;BME280;6152;48.728;9.256;2023-02-01T11:43:07;97697.25;;;5.60;100.00
12178;BME280;6152;48.728;9.256;2023-02-01T11:45:34;97688.63;;;5.62;100.00
12178;BME280;6152;48.728;9.256;2023-02-01T11:48:09;97690.16;;;5.67;100.00
12178;BME280;6152;48.728;9.256;2023-02-01T11:56:37;97685.63;;;6.01;100.00
12178;BME280;6152;48.728;9.256;2023-02-01T12:07:57;97662.22;;;6.06;100.00
12178;BME280;6152;48.728;9.256;2023-02-01T12:10:35;97669.44;;;6.21;100.00
12178;BME280;6152;48.728;9.256;2023-02-01T12:16:12;97663.59;;;6.16;100.00
12178;BME280;6152;48.728;9.256;2023-02-01T12:27:12;97663.31;;;5.99;100.00
12178;BME280;6152;48.728;9.256;2023-02-01T12:38:14;97675.91;;;5.82;100.00
12178;BME280;6152;48.728;9.256;2023-02-01T12:41:18;97667.53;;;5.75;100.00
12178;BME280;6152;48.728;9.256;2023-02-01T12:46:35;97666.94;;;5.66;100.00
12178;BME280;6152;48.728;9.256;2023-02-01T12:49:23;97666.88;;;5.69;100.00
12178;BME280;6152;48.728;9.256;2023-02-01T12:51:58;97662.72;;;5.65;100.00
12178;BME280;6152;48.728;9.256;2023-02-01T12:54:36;97677.09;;;5.72;100.00
12178;BME280;6152;48.728;9.256;2023-02-01T12:57:09;97666.78;;;5.72;100.00
12178;BME280;6152;48.728;9.256;2023-02-01T12:59:40;97671.34;;;5.64;100.00
12178;BME280;6152;48.728;9.256;2023-02-01T13:04:56;97669.97;;;5.52;100.00
12178;BME280;6152;48.728;9.256;2023-02-01T13:08:21;97670.81;;;5.52;100.00
12178;BME280;6152;48.728;9.256;2023-02-01T13:10:58;97664.38;;;5.39;100.00
12178;BME280;6152;48.728;9.256;2023-02-01T13:13:40;97666.16;;;5.37;100.00
12178;BME280;6152;48.728;9.256;2023-02-01T13:21:46;97658.66;;;5.30;100.00
12178;BME280;6152;48.728;9.256;2023-02-01T13:24:32;97662.88;;;5.32;100.00
12178;BME280;6152;48.728;9.256;2023-02-01T13:27:00;97654.50;;;5.24;100.00
12178;BME280;6152;48.728;9.256;2023-02-01T13:29:28;97654.66;;;5.20;100.00
12178;BME280;6152;48.728;9.256;2023-02-01T13:32:04;97656.31;;;5.22;100.00
12178;BME280;6152;48.728;9.256;2023-02-01T13:42:59;97648.03;;;5.11;100.00
12178;BME280;6152;48.728;9.256;2023-02-01T13:45:30;97644.63;;;5.10;100.00
12178;BME280;6152;48.728;9.256;2023-02-01T13:48:01;97637.72;;;5.11;100.00
12178;BME280;6152;48.728;9.256;2023-02-01T13:50:34;97641.22;;;5.10;100.00
12178;BME280;6152;48.728;9.256;2023-02-01T13:53:04;97651.59;;;5.07;100.00
12178;BME280;6152;48.728;9.256;2023-02-01T13:55:59;97652.50;;;5.06;100.00
12178;BME280;6152;48.728;9.256;2023-02-01T13:58:37;97641.47;;;5.01;100.00
12178;BME280;6152;48.728;9.256;2023-02-01T14:03:49;97633.91;;;4.96;100.00
12178;BME280;6152;48.728;9.256;2023-02-01T14:06:38;97632.19;;;4.95;100.00
12178;BME280;6152;48.728;9.256;2023-02-01T14:11:56;97636.50;;;4.95;100.00
12178;BME280;6152;48.728;9.256;2023-02-01T14:24:32;97619.53;;;4.88;100.00
12178;BME280;6152;48.728;9.256;2023-02-01T14:27:16;97616.16;;;4.86;100.00
12178;BME280;6152;48.728;9.256;2023-02-01T14:29:50;97616.22;;;4.83;100.00
12178;BME280;6152;48.728;9.256;2023-02-01T14:32:34;97623.84;;;4.87;100.00
12178;BME280;6152;48.728;9.256;2023-02-01T14:35:17;97629.13;;;4.83;100.00
12178;BME280;6152;48.728;9.256;2023-02-01T14:37:45;97626.63;;;4.80;100.00
12178;BME280;6152;48.728;9.256;2023-02-01T14:42:53;97639.31;;;4.87;100.00
12178;BME280;6152;48.728;9.256;2023-02-01T14:50:32;97644.56;;;4.84;100.00
12178;BME280;6152;48.728;9.256;2023-02-01T14:58:15;97647.09;;;4.86;100.00
12178;BME280;6152;48.728;9.256;2023-02-01T15:01:26;97655.81;;;4.82;100.00
12178;BME280;6152;48.728;9.256;2023-02-01T15:04:12;97669.50;;;4.84;100.00
12178;BME280;6152;48.728;9.256;2023-02-01T15:09:59;97667.66;;;4.89;100.00
12178;BME280;6152;48.728;9.256;2023-02-01T15:14:47;97662.28;;;4.95;100.00
12178;BME280;6152;48.728;9.256;2023-02-01T15:17:28;97663.84;;;5.00;100.00
12178;BME280;6152;48.728;9.256;2023-02-01T15:20:03;97670.66;;;5.03;100.00
12178;BME280;6152;48.728;9.256;2023-02-01T15:22:31;97664.97;;;4.92;100.00
12178;BME280;6152;48.728;9.256;2023-02-01T15:24:58;97664.91;;;4.93;100.00
12178;BME280;6152;48.728;9.256;2023-02-01T15:27:26;97670.91;;;4.94;100.00
12178;BME280;6152;48.728;9.256;2023-02-01T15:29:53;97680.44;;;4.92;100.00
12178;BME280;6152;48.728;9.256;2023-02-01T15:32:30;97672.59;;;4.95;100.00
12178;BME280;6152;48.728;9.256;2023-02-01T15:34:59;97675.81;;;5.03;100.00
12178;BME280;6152;48.728;9.256;2023-02-01T15:37:27;97674.22;;;4.99;100.00
12178;BME280;6152;48.728;9.256;2023-02-01T15:42:54;97670.66;;;5.03;100.00
12178;BME280;6152;48.728;9.256;2023-02-01T15:45:27;97668.00;;;5.06;100.00
12178;BME280;6152;48.728;9.256;2023-02-01T15:47:56;97668.88;;;5.05;100.00
12178;BME280;6152;48.728;9.256;2023-02-01T15:50:23;97674.13;;;5.02;100.00
12178;BME280;6152;48.728;9.256;2023-02-01T15:52:51;97667.03;;;5.08;100.00
12178;BME280;6152;48.728;9.256;2023-02-01T15:55:21;97669.72;;;5.05;100.00
12178;BME280;6152;48.728;9.256;2023-02-01T15:57:50;97677.41;;;5.07;100.00
12178;BME280;6152;48.728;9.256;2023-02-01T16:00:26;97670.78;;;4.98;100.00
12178;BME280;6152;48.728;9.256;2023-02-01T16:03:04;97678.47;;;5.00;100.00
12178;BME280;6152;48.728;9.256;2023-02-01T16:05:40;97679.50;;;4.94;100.00
12178;BME280;6152;48.728;9.256;2023-02-01T16:08:14;97682.84;;;4.98;100.00
12178;BME280;6152;48.728;9.256;2023-02-01T16:10:43;97692.38;;;4.96;100.00
12178;BME280;6152;48.728;9.256;2023-02-01T16:13:10;97696.78;;;4.91;100.00